Time;durP1;ratioP1;P1;durP2;ratioP2;P2;SDS_P1;SDS_P2;PMS_P1;PMS_P2;Temp;Humidity;BMP_temperature;BMP_pressure;BME280_temperature;BME280_humidity;BME280_pressure;Samples;Min_cycle;Max_cycle;Signal;HPM_P1;HPM_P2
2023/10/04 00:00:53;;;;;;;;;;;;;;;;;;6258785;28;20163;-65
2023/10/04 00:03:55;;;;;;;15.63;6.43;;;;;;;;;;6257175;28;19936;-64
2023/10/04 00:06:59;;;;;;;15.27;7.03;;;;;;;;;;6253737;28;20042;-64
2023/10/04 00:10:04;;;;;;;11.05;6.90;;;;;;;;;;6260918;28;20052;-64
2023/10/04 00:13:06;;;;;;;17.20;8.05;;;;;;;;;;6246965;28;20134;-65
2023/10/04 00:16:08;;;;;;;12.55;11.30;;;;;;;;;;6242472;28;20567;-65
2023/10/04 00:19:12;;;;;;;14.18;6.68;;;;;;;;;;6241632;28;20041;-65
2023/10/04 00:22:18;;;;;;;15.20;7.57;;;;;;;;;;6256894;28;20098;-65
2023/10/04 00:25:25;;;;;;;15.55;7.32;;;;;;;;;;6252224;28;20049;-64
2023/10/04 00:28:29;;;;;;;14.48;6.85;;;;;;;;;;6249025;28;20049;-64
2023/10/04 00:31:34;;;;;;;13.07;6.78;;;;;;;;;;6253114;28;20446;-65
2023/10/04 00:34:39;;;;;;;13.57;8.20;;;;;;;;;;6246214;28;20061;-65
2023/10/04 00:37:42;;;;;;;15.07;7.60;;;;;;;;;;6232297;28;20049;-65
2023/10/04 00:40:45;;;;;;;17.90;7.95;;;;;;;;;;6256244;28;20054;-65
2023/10/04 00:43:50;;;;;;;14.80;7.78;;;;;;;;;;6246541;28;20049;-64
2023/10/04 00:46:53;;;;;;;16.02;6.78;;;;;;;;;;6239733;28;20049;-64
2023/10/04 00:49:55;;;;;;;16.95;8.57;;;;;;;;;;6258588;28;20545;-64
2023/10/04 00:53:29;;;;;;;16.70;7.00;;;;;;;;;;6249332;28;20049;-65
2023/10/04 00:56:31;;;;;;;12.32;6.10;;;;;;;;;;6212585;28;20048;-65
2023/10/04 00:59:33;;;;;;;15.82;7.15;;;;;;;;;;6243068;28;20151;-65
2023/10/04 01:02:37;;;;;;;12.15;6.43;;;;;;;;;;6251599;28;20119;-65
2023/10/04 01:05:45;;;;;;;14.05;7.13;;;;;;;;;;6261573;28;20040;-64
2023/10/04 01:08:47;;;;;;;13.57;6.68;;;;;;;;;;6245476;28;20511;-64
2023/10/04 01:11:49;;;;;;;11.85;7.53;;;;;;;;;;6253523;28;20053;-64
2023/10/04 01:14:53;;;;;;;15.85;7.68;;;;;;;;;;6244724;28;20157;-64
2023/10/04 01:17:57;;;;;;;11.15;6.40;;;;;;;;;;6238456;28;20123;-64
2023/10/04 01:20:59;;;;;;;10.77;6.68;;;;;;;;;;6245738;28;20756;-65
2023/10/04 01:24:07;;;;;;;14.45;7.00;;;;;;;;;;6257174;28;20705;-64
2023/10/04 01:27:10;;;;;;;13.13;11.05;;;;;;;;;;6253644;28;20747;-65
2023/10/04 01:30:16;;;;;;;15.80;6.40;;;;;;;;;;6256847;28;20049;-64
2023/10/04 01:33:19;;;;;;;11.25;7.10;;;;;;;;;;6245769;28;20526;-65
2023/10/04 01:36:21;;;;;;;11.27;6.30;;;;;;;;;;6226152;28;20179;-64
2023/10/04 01:39:30;;;;;;;12.88;6.95;;;;;;;;;;6232308;28;20407;-65
2023/10/04 01:42:32;;;;;;;15.85;7.28;;;;;;;;;;6262098;28;20064;-64
2023/10/04 01:45:34;;;;;;;14.15;7.10;;;;;;;;;;6240392;28;20041;-65
2023/10/04 01:48:36;;;;;;;11.10;5.85;;;;;;;;;;6257328;28;20041;-64
2023/10/04 01:51:42;;;;;;;10.48;5.43;;;;;;;;;;6249428;28;20068;-65
2023/10/04 01:54:46;;;;;;;16.73;7.65;;;;;;;;;;6250788;28;20752;-65
2023/10/04 01:57:48;;;;;;;11.95;6.30;;;;;;;;;;6258802;28;20048;-65
2023/10/04 02:00:51;;;;;;;13.27;6.45;;;;;;;;;;6253503;28;20175;-65
2023/10/04 02:03:53;;;;;;;16.95;6.93;;;;;;;;;;6250865;28;20124;-65
2023/10/04 02:06:57;;;;;;;12.98;9.45;;;;;;;;;;6236409;28;20419;-65
2023/10/04 02:09:59;;;;;;;13.13;6.55;;;;;;;;;;6234143;28;20041;-65
2023/10/04 02:13:01;;;;;;;11.90;7.47;;;;;;;;;;6228509;28;20053;-65
2023/10/04 02:16:08;;;;;;;11.27;7.10;;;;;;;;;;6250656;28;20077;-65
2023/10/04 02:19:12;;;;;;;15.93;8.05;;;;;;;;;;6246602;28;20485;-65
2023/10/04 02:22:15;;;;;;;12.20;5.82;;;;;;;;;;6232885;28;20124;-64
2023/10/04 02:25:19;;;;;;;11.70;6.80;;;;;;;;;;6239344;28;20514;-65
2023/10/04 02:28:23;;;;;;;13.82;6.22;;;;;;;;;;6233932;28;20088;-65
2023/10/04 02:31:29;;;;;;;14.32;7.65;;;;;;;;;;6226292;28;20137;-65
2023/10/04 02:34:31;;;;;;;13.70;7.18;;;;;;;;;;6246458;28;20123;-65
2023/10/04 02:37:34;;;;;;;17.23;7.95;;;;;;;;;;6249996;28;20052;-65
2023/10/04 02:40:37;;;;;;;16.90;8.57;;;;;;;;;;6231186;28;20053;-65
2023/10/04 02:43:40;;;;;;;14.27;7.05;;;;;;;;;;6230625;28;20129;-65
2023/10/04 02:46:44;;;;;;;11.82;7.18;;;;;;;;;;6219013;28;20165;-65
2023/10/04 02:49:47;;;;;;;11.63;8.10;;;;;;;;;;6235791;28;20060;-65
2023/10/04 02:52:52;;;;;;;18.30;7.07;;;;;;;;;;6238542;28;20441;-65
2023/10/04 02:56:06;;;;;;;11.77;7.80;;;;;;;;;;6228281;28;20050;-65
2023/10/04 02:59:16;;;;;;;10.55;6.90;;;;;;;;;;6229758;28;20084;-65
2023/10/04 03:02:21;;;;;;;12.73;7.13;;;;;;;;;;6238970;28;20053;-64
2023/10/04 03:05:23;;;;;;;16.17;6.50;;;;;;;;;;6246206;28;20057;-65
2023/10/04 03:08:27;;;;;;;10.25;5.95;;;;;;;;;;6256939;28;20138;-65
2023/10/04 03:11:30;;;;;;;16.33;7.00;;;;;;;;;;6233367;28;20048;-64
2023/10/04 03:14:32;;;;;;;12.70;5.95;;;;;;;;;;6235845;28;20052;-65
2023/10/04 03:17:34;;;;;;;12.20;6.32;;;;;;;;;;6244278;28;20577;-65
2023/10/04 03:20:37;;;;;;;12.10;7.22;;;;;;;;;;6225378;28;20139;-65
2023/10/04 03:23:42;;;;;;;10.13;7.15;;;;;;;;;;6225879;28;20182;-65
2023/10/04 03:26:54;;;;;;;13.88;6.18;;;;;;;;;;6254662;28;20060;-65
2023/10/04 03:29:57;;;;;;;14.52;7.88;;;;;;;;;;6247374;28;20438;-65
2023/10/04 03:33:04;;;;;;;12.73;6.78;;;;;;;;;;6223771;28;20042;-65
2023/10/04 03:36:07;;;;;;;12.25;6.78;;;;;;;;;;6243012;28;20052;-64
2023/10/04 03:39:09;;;;;;;13.20;7.07;;;;;;;;;;6237514;28;20782;-64
2023/10/04 03:42:14;;;;;;;11.05;6.68;;;;;;;;;;6236650;28;20150;-63
2023/10/04 03:45:18;;;;;;;11.57;6.35;;;;;;;;;;6232971;28;20538;-64
2023/10/04 03:48:23;;;;;;;15.40;6.70;;;;;;;;;;6258668;28;20099;-64
2023/10/04 03:51:33;;;;;;;12.43;6.72;;;;;;;;;;6256521;28;20182;-64
2023/10/04 03:54:39;;;;;;;16.00;6.57;;;;;;;;;;6229436;28;20041;-65
2023/10/04 03:57:44;;;;;;;17.15;6.90;;;;;;;;;;6208034;28;20058;-65
2023/10/04 04:00:47;;;;;;;17.83;6.68;;;;;;;;;;6227870;28;20053;-65
2023/10/04 04:03:50;;;;;;;14.45;7.18;;;;;;;;;;6233321;28;20053;-64
2023/10/04 04:06:53;;;;;;;15.57;7.32;;;;;;;;;;6232555;28;20045;-64
2023/10/04 04:09:55;;;;;;;14.65;9.73;;;;;;;;;;6246660;28;20431;-65
2023/10/04 04:13:01;;;;;;;9.75;5.43;;;;;;;;;;6247963;28;20068;-64
2023/10/04 04:16:10;;;;;;;10.80;5.65;;;;;;;;;;6251334;28;20199;-64
2023/10/04 04:19:14;;;;;;;10.65;7.15;;;;;;;;;;6233313;28;20052;-64
2023/10/04 04:22:23;;;;;;;13.30;10.57;;;;;;;;;;6250505;28;20757;-64
2023/10/04 04:25:28;;;;;;;13.82;7.65;;;;;;;;;;6215169;28;20048;-64
2023/10/04 04:28:35;;;;;;;16.13;8.55;;;;;;;;;;6232545;28;20053;-64
2023/10/04 04:31:40;;;;;;;15.35;8.95;;;;;;;;;;6234329;28;21228;-65
2023/10/04 04:34:44;;;;;;;14.90;8.30;;;;;;;;;;6238839;28;20041;-65
2023/10/04 04:37:48;;;;;;;17.38;8.98;;;;;;;;;;6240539;28;20190;-66
2023/10/04 04:40:52;;;;;;;17.13;8.55;;;;;;;;;;6236534;28;20279;-65
2023/10/04 04:44:06;;;;;;;14.02;8.23;;;;;;;;;;6244647;28;20739;-65
2023/10/04 04:47:10;;;;;;;18.85;11.80;;;;;;;;;;6233305;28;20489;-63
2023/10/04 04:50:16;;;;;;;15.82;11.05;;;;;;;;;;6231463;28;20756;-63
2023/10/04 04:53:20;;;;;;;14.13;8.35;;;;;;;;;;6256935;28;20052;-64
2023/10/04 04:56:24;;;;;;;12.95;7.75;;;;;;;;;;6234740;28;20042;-64
2023/10/04 04:59:29;;;;;;;14.85;8.18;;;;;;;;;;6242635;28;20044;-64
2023/10/04 05:02:32;;;;;;;20.25;9.57;;;;;;;;;;6228059;28;20041;-66
2023/10/04 05:05:34;;;;;;;21.05;9.80;;;;;;;;;;6236096;28;20055;-66
2023/10/04 05:08:36;;;;;;;21.13;8.43;;;;;;;;;;6251984;28;20045;-66
2023/10/04 05:11:38;;;;;;;17.33;9.70;;;;;;;;;;6255978;28;20553;-66
2023/10/04 05:14:40;;;;;;;21.13;10.25;;;;;;;;;;6252615;28;20056;-66
2023/10/04 05:17:42;;;;;;;23.75;13.93;;;;;;;;;;6261694;28;20407;-66
2023/10/04 05:20:50;;;;;;;17.80;7.97;;;;;;;;;;6255535;28;20052;-66
2023/10/04 05:23:55;;;;;;;16.35;11.25;;;;;;;;;;6259447;28;20502;-66
2023/10/04 05:26:58;;;;;;;31.35;9.38;;;;;;;;;;6255878;28;20106;-66
2023/10/04 05:30:00;;;;;;;17.40;10.32;;;;;;;;;;6254671;28;20814;-66
2023/10/04 05:33:03;;;;;;;18.65;9.05;;;;;;;;;;6259494;28;20076;-66
2023/10/04 05:36:09;;;;;;;17.05;9.38;;;;;;;;;;6258175;28;20052;-66
2023/10/04 05:39:14;;;;;;;16.75;9.82;;;;;;;;;;6258208;28;20049;-66
2023/10/04 05:42:16;;;;;;;16.65;6.72;;;;;;;;;;6247244;28;20049;-66
2023/10/04 05:45:21;;;;;;;13.98;6.80;;;;;;;;;;6254951;28;20056;-66
2023/10/04 05:48:23;;;;;;;17.50;7.57;;;;;;;;;;6249573;28;20430;-66
2023/10/04 05:51:25;;;;;;;14.20;6.78;;;;;;;;;;6249650;28;20049;-66
2023/10/04 05:54:27;;;;;;;20.67;7.85;;;;;;;;;;6252056;28;20049;-65
2023/10/04 05:57:29;;;;;;;12.40;5.85;;;;;;;;;;6255682;28;20539;-65
2023/10/04 06:00:33;;;;;;;11.02;6.30;;;;;;;;;;6244769;28;20536;-65
2023/10/04 06:03:35;;;;;;;17.50;6.55;;;;;;;;;;6257024;28;20045;-66
2023/10/04 06:06:40;;;;;;;13.55;9.88;;;;;;;;;;6252505;28;20254;-66
2023/10/04 06:09:42;;;;;;;14.95;6.93;;;;;;;;;;6259431;28;20043;-65
2023/10/04 06:12:46;;;;;;;16.70;7.38;;;;;;;;;;6251317;28;20583;-65
2023/10/04 06:15:50;;;;;;;15.77;7.28;;;;;;;;;;6253641;28;20052;-67
2023/10/04 06:18:52;;;;;;;16.65;7.50;;;;;;;;;;6257123;28;20137;-66
2023/10/04 06:21:54;;;;;;;15.75;8.70;;;;;;;;;;6252551;28;20052;-66
2023/10/04 06:24:56;;;;;;;16.45;7.57;;;;;;;;;;6248291;28;20124;-66
2023/10/04 06:27:59;;;;;;;15.13;8.35;;;;;;;;;;6250347;28;20052;-67
2023/10/04 06:31:02;;;;;;;12.65;6.95;;;;;;;;;;6254887;28;20049;-67
2023/10/04 06:34:04;;;;;;;15.57;7.97;;;;;;;;;;6262203;28;20045;-67
2023/10/04 06:37:07;;;;;;;16.35;7.45;;;;;;;;;;6246142;28;20523;-66
2023/10/04 06:40:19;;;;;;;15.65;7.03;;;;;;;;;;6251477;28;20045;-67
2023/10/04 06:43:21;;;;;;;15.20;7.53;;;;;;;;;;6244769;28;20095;-67
2023/10/04 06:46:23;;;;;;;16.17;7.30;;;;;;;;;;6246973;28;20718;-66
2023/10/04 06:49:25;;;;;;;14.35;10.70;;;;;;;;;;6256110;28;20450;-67
2023/10/04 06:52:27;;;;;;;16.00;8.38;;;;;;;;;;6253774;28;20041;-66
2023/10/04 06:55:30;;;;;;;15.80;7.55;;;;;;;;;;6257841;28;20040;-67
2023/10/04 06:58:32;;;;;;;22.15;9.68;;;;;;;;;;6254405;28;20049;-66
2023/10/04 07:01:35;;;;;;;15.68;7.93;;;;;;;;;;6239130;28;20120;-66
2023/10/04 07:04:37;;;;;;;23.33;7.95;;;;;;;;;;6251826;28;20045;-67
2023/10/04 07:07:40;;;;;;;23.10;9.27;;;;;;;;;;6256062;28;20079;-67
2023/10/04 07:10:45;;;;;;;26.52;10.00;;;;;;;;;;6253788;28;20033;-66
2023/10/04 07:13:47;;;;;;;15.52;7.60;;;;;;;;;;6253402;28;20621;-66
2023/10/04 07:16:51;;;;;;;15.68;8.77;;;;;;;;;;6246720;28;20175;-67
2023/10/04 07:19:53;;;;;;;14.98;7.78;;;;;;;;;;6244253;28;20041;-66
2023/10/04 07:22:58;;;;;;;15.43;8.52;;;;;;;;;;6248799;28;20438;-67
2023/10/04 07:26:00;;;;;;;15.10;6.97;;;;;;;;;;6236749;28;20049;-68
2023/10/04 07:29:03;;;;;;;17.48;8.60;;;;;;;;;;6254708;28;20202;-66
2023/10/04 07:32:05;;;;;;;17.67;8.23;;;;;;;;;;6242731;28;20054;-67
2023/10/04 07:35:12;;;;;;;15.88;13.00;;;;;;;;;;6256140;28;20495;-66
2023/10/04 07:38:16;;;;;;;12.93;8.43;;;;;;;;;;6247541;28;20142;-67
2023/10/04 07:41:18;;;;;;;20.23;8.63;;;;;;;;;;6251708;28;20045;-67
2023/10/04 07:44:22;;;;;;;18.27;8.13;;;;;;;;;;6246761;28;20053;-66
2023/10/04 07:47:24;;;;;;;16.25;8.57;;;;;;;;;;6234712;28;20061;-66
2023/10/04 07:50:26;;;;;;;17.83;7.63;;;;;;;;;;6254789;28;20126;-66
2023/10/04 07:53:29;;;;;;;13.90;7.68;;;;;;;;;;6246353;28;20190;-66
2023/10/04 07:56:34;;;;;;;21.00;8.30;;;;;;;;;;6251205;28;20739;-65
2023/10/04 07:59:37;;;;;;;14.50;8.07;;;;;;;;;;6248332;28;20060;-67
2023/10/04 08:02:45;;;;;;;16.05;9.20;;;;;;;;;;6252604;28;20049;-66
2023/10/04 08:05:48;;;;;;;14.93;8.63;;;;;;;;;;6246996;28;20045;-66
2023/10/04 08:08:50;;;;;;;14.95;8.55;;;;;;;;;;6258027;28;20099;-66
2023/10/04 08:11:52;;;;;;;20.65;10.68;;;;;;;;;;6255251;28;20625;-66
2023/10/04 08:14:58;;;;;;;20.08;7.82;;;;;;;;;;6254322;28;20041;-66
2023/10/04 08:18:01;;;;;;;16.02;8.65;;;;;;;;;;6252942;28;20062;-66
2023/10/04 08:21:07;;;;;;;19.10;8.50;;;;;;;;;;6252634;28;20604;-63
2023/10/04 08:24:09;;;;;;;17.40;7.70;;;;;;;;;;6258287;28;20059;-65
2023/10/04 08:27:11;;;;;;;15.85;7.05;;;;;;;;;;6256346;28;20056;-65
2023/10/04 08:30:14;;;;;;;17.75;7.32;;;;;;;;;;6260304;28;20045;-64
2023/10/04 08:33:18;;;;;;;17.05;8.50;;;;;;;;;;6252863;28;20049;-65
2023/10/04 08:36:21;;;;;;;16.15;7.20;;;;;;;;;;6243261;28;20057;-65
2023/10/04 08:39:23;;;;;;;16.92;8.20;;;;;;;;;;6253793;28;20049;-65
2023/10/04 08:42:25;;;;;;;16.08;8.07;;;;;;;;;;6245041;28;20064;-65
2023/10/04 08:45:29;;;;;;;15.32;7.18;;;;;;;;;;6245496;28;20045;-65
2023/10/04 08:48:32;;;;;;;;;;;;;;;;;;6254821;28;20518;-65
2023/10/04 08:51:42;;;;;;;15.82;7.55;;;;;;;;;;6254701;28;20330;-65
2023/10/04 08:54:50;;;;;;;16.85;7.95;;;;;;;;;;6251043;28;20132;-65
2023/10/04 08:57:53;;;;;;;14.52;7.80;;;;;;;;;;6235060;28;20037;-65
2023/10/04 09:00:55;;;;;;;12.70;6.82;;;;;;;;;;6252773;28;20049;-66
2023/10/04 09:04:00;;;;;;;13.05;7.70;;;;;;;;;;6254024;28;20742;-65
2023/10/04 09:07:02;;;;;;;15.07;8.32;;;;;;;;;;6253647;28;20630;-65
2023/10/04 09:10:06;;;;;;;12.02;6.90;;;;;;;;;;6242146;28;20050;-65
2023/10/04 09:13:09;;;;;;;14.40;7.30;;;;;;;;;;6247803;28;20605;-65
2023/10/04 09:16:39;;;;;;;13.82;7.05;;;;;;;;;;6253118;28;20057;-65
2023/10/04 09:19:41;;;;;;;10.23;6.95;;;;;;;;;;6243946;28;20059;-65
2023/10/04 09:22:43;;;;;;;15.00;7.88;;;;;;;;;;6248101;28;20038;-66
2023/10/04 09:25:46;;;;;;;15.95;9.40;;;;;;;;;;6251850;28;20430;-65
2023/10/04 09:28:49;;;;;;;11.07;6.55;;;;;;;;;;6247686;28;20049;-65
2023/10/04 09:31:53;;;;;;;15.98;7.95;;;;;;;;;;6253064;28;20037;-66
2023/10/04 09:34:57;;;;;;;13.15;7.57;;;;;;;;;;6255777;28;20041;-65
2023/10/04 09:38:17;;;;;;;12.98;8.57;;;;;;;;;;6251712;28;20437;-66
2023/10/04 09:41:19;;;;;;;15.80;8.70;;;;;;;;;;6244871;28;20088;-66
2023/10/04 09:44:23;;;;;;;13.65;8.18;;;;;;;;;;6243850;28;20186;-68
2023/10/04 09:47:36;;;;;;;15.05;7.97;;;;;;;;;;6248297;28;20041;-65
2023/10/04 09:50:39;;;;;;;15.90;7.78;;;;;;;;;;6252117;28;20053;-65
2023/10/04 09:53:42;;;;;;;14.18;8.27;;;;;;;;;;6237540;28;20060;-65
2023/10/04 09:56:49;;;;;;;17.00;8.30;;;;;;;;;;6257633;28;20069;-66
2023/10/04 09:59:52;;;;;;;16.58;8.95;;;;;;;;;;6251097;28;20045;-66
2023/10/04 10:02:54;;;;;;;13.43;7.47;;;;;;;;;;6241159;28;20044;-66
2023/10/04 10:05:57;;;;;;;15.98;7.93;;;;;;;;;;6238629;28;20053;-66
2023/10/04 10:09:02;;;;;;;14.32;8.57;;;;;;;;;;6237059;28;20160;-66
2023/10/04 10:12:07;;;;;;;22.10;8.30;;;;;;;;;;6239700;28;20139;-66
2023/10/04 10:15:11;;;;;;;14.70;7.13;;;;;;;;;;6236000;28;20044;-66
2023/10/04 10:18:15;;;;;;;15.13;7.97;;;;;;;;;;6250909;28;20049;-66
2023/10/04 10:21:17;;;;;;;15.75;7.20;;;;;;;;;;6258483;28;20172;-66
2023/10/04 10:24:21;;;;;;;13.68;6.97;;;;;;;;;;6259813;28;20049;-66
2023/10/04 10:27:25;;;;;;;13.05;5.95;;;;;;;;;;6256151;28;20057;-66
2023/10/04 10:30:31;;;;;;;13.10;5.40;;;;;;;;;;6241308;28;20045;-66
2023/10/04 10:33:33;;;;;;;18.30;6.25;;;;;;;;;;6243554;28;20048;-66
2023/10/04 10:36:35;;;;;;;10.65;4.93;;;;;;;;;;6257825;28;20053;-66
2023/10/04 10:39:49;;;;;;;12.25;6.07;;;;;;;;;;6250737;28;20045;-66
2023/10/04 10:43:10;;;;;;;14.98;7.28;;;;;;;;;;6247485;28;20033;-66
2023/10/04 10:46:34;;;;;;;16.73;6.32;;;;;;;;;;6252084;28;20052;-66
2023/10/04 10:49:44;;;;;;;14.55;6.88;;;;;;;;;;6258755;28;20130;-66
2023/10/04 10:52:46;;;;;;;11.35;5.25;;;;;;;;;;6252066;28;20785;-66
2023/10/04 10:55:49;;;;;;;16.50;6.78;;;;;;;;;;6252467;28;20128;-66
2023/10/04 10:58:51;;;;;;;14.02;5.07;;;;;;;;;;6253749;28;20045;-66
2023/10/04 11:01:53;;;;;;;10.98;5.90;;;;;;;;;;6257210;28;20044;-64
2023/10/04 11:04:56;;;;;;;12.68;6.15;;;;;;;;;;6251485;28;20055;-66
2023/10/04 11:07:59;;;;;;;9.55;7.05;;;;;;;;;;6253934;28;20705;-66
2023/10/04 11:11:01;;;;;;;13.77;7.25;;;;;;;;;;6254497;28;20423;-66
2023/10/04 11:14:05;;;;;;;10.93;4.68;;;;;;;;;;6242330;28;20053;-66
2023/10/04 11:17:10;;;;;;;10.55;5.10;;;;;;;;;;6258220;28;20079;-66
2023/10/04 11:20:17;;;;;;;8.98;4.72;;;;;;;;;;6251155;28;20081;-66
2023/10/04 11:23:20;;;;;;;13.35;5.05;;;;;;;;;;6258452;28;20048;-65
2023/10/04 11:26:22;;;;;;;9.98;4.57;;;;;;;;;;6245221;28;20067;-66
2023/10/04 11:29:25;;;;;;;10.88;5.20;;;;;;;;;;6256432;28;20484;-66
2023/10/04 11:32:30;;;;;;;12.75;7.72;;;;;;;;;;6244511;28;20438;-66
2023/10/04 11:35:33;;;;;;;10.93;5.20;;;;;;;;;;6252703;28;20127;-66
2023/10/04 11:38:35;;;;;;;11.52;7.95;;;;;;;;;;6243004;28;20433;-66
2023/10/04 11:41:39;;;;;;;11.95;5.50;;;;;;;;;;6242425;28;20529;-66
2023/10/04 11:44:41;;;;;;;10.38;5.35;;;;;;;;;;6259882;28;20071;-66
2023/10/04 11:47:45;;;;;;;12.57;5.35;;;;;;;;;;6247472;28;20482;-67
2023/10/04 11:50:48;;;;;;;11.93;6.78;;;;;;;;;;6249565;28;20545;-66
2023/10/04 11:53:53;;;;;;;19.60;6.30;;;;;;;;;;6264083;28;20041;-66
2023/10/04 11:56:57;;;;;;;10.90;5.50;;;;;;;;;;6259144;28;20053;-66
2023/10/04 11:59:59;;;;;;;12.30;5.57;;;;;;;;;;6262785;28;20049;-66
2023/10/04 12:03:03;;;;;;;12.98;5.00;;;;;;;;;;6240522;28;20053;-66
2023/10/04 12:06:06;;;;;;;11.38;6.82;;;;;;;;;;6255902;28;20423;-66
2023/10/04 12:09:08;;;;;;;13.00;5.80;;;;;;;;;;6257446;28;20045;-66
2023/10/04 12:12:16;;;;;;;13.27;4.47;;;;;;;;;;6256965;28;20045;-66
2023/10/04 12:15:18;;;;;;;9.15;4.78;;;;;;;;;;6251107;28;20091;-66
2023/10/04 12:18:20;;;;;;;12.05;5.18;;;;;;;;;;6257084;28;20045;-66
2023/10/04 12:21:22;;;;;;;10.35;4.80;;;;;;;;;;6259758;28;20045;-66
2023/10/04 12:24:30;;;;;;;12.77;5.85;;;;;;;;;;6260338;28;20056;-66
2023/10/04 12:27:32;;;;;;;11.85;5.50;;;;;;;;;;6258869;28;20037;-66
2023/10/04 12:30:35;;;;;;;14.60;5.78;;;;;;;;;;6258011;28;20052;-66
2023/10/04 12:33:38;;;;;;;13.13;5.50;;;;;;;;;;6241867;28;20052;-66
2023/10/04 12:36:41;;;;;;;12.88;5.10;;;;;;;;;;6257660;28;20048;-65
2023/10/04 12:39:57;;;;;;;11.07;4.72;;;;;;;;;;6259345;28;20099;-66
2023/10/04 12:42:59;;;;;;;10.00;4.55;;;;;;;;;;6257553;28;20052;-66
2023/10/04 12:46:01;;;;;;;15.80;5.43;;;;;;;;;;6260597;28;20132;-66
2023/10/04 12:49:05;;;;;;;10.57;4.30;;;;;;;;;;6259836;28;20159;-66
2023/10/04 12:52:10;;;;;;;14.15;4.88;;;;;;;;;;6247798;28;20450;-66
2023/10/04 12:55:12;;;;;;;10.98;5.72;;;;;;;;;;6258854;28;20045;-66
2023/10/04 12:58:14;;;;;;;10.25;5.20;;;;;;;;;;6250760;28;20049;-66
2023/10/04 13:01:18;;;;;;;10.88;4.65;;;;;;;;;;6250194;28;20136;-66
2023/10/04 13:04:20;;;;;;;10.15;5.50;;;;;;;;;;6247310;28;20046;-66
2023/10/04 13:07:22;;;;;;;12.57;6.50;;;;;;;;;;6230998;28;20500;-66
2023/10/04 13:10:24;;;;;;;18.40;8.85;;;;;;;;;;6259697;28;20545;-66
2023/10/04 13:13:28;;;;;;;12.63;5.25;;;;;;;;;;6258423;28;20131;-66
2023/10/04 13:16:33;;;;;;;9.45;4.65;;;;;;;;;;6252007;28;20111;-66
2023/10/04 13:19:35;;;;;;;10.60;5.55;;;;;;;;;;6257110;28;20441;-66
2023/10/04 13:22:37;;;;;;;10.70;5.80;;;;;;;;;;6258733;28;20474;-66
2023/10/04 13:25:39;;;;;;;10.75;5.80;;;;;;;;;;6253855;28;20454;-66
2023/10/04 13:28:43;;;;;;;13.13;6.38;;;;;;;;;;6258450;28;20168;-66
2023/10/04 13:31:45;;;;;;;9.10;4.55;;;;;;;;;;6248589;28;20053;-66
2023/10/04 13:34:47;;;;;;;12.20;5.70;;;;;;;;;;6244986;28;20868;-66
2023/10/04 13:37:52;;;;;;;12.73;5.25;;;;;;;;;;6250624;28;20045;-66
2023/10/04 13:40:54;;;;;;;9.13;5.03;;;;;;;;;;6249414;28;20065;-66
2023/10/04 13:43:57;;;;;;;19.13;8.05;;;;;;;;;;6255155;28;20795;-66
2023/10/04 13:47:00;;;;;;;11.07;5.65;;;;;;;;;;6249653;28;20044;-66
2023/10/04 13:50:03;;;;;;;10.45;4.63;;;;;;;;;;6251825;28;20056;-66
2023/10/04 13:53:08;;;;;;;11.80;4.90;;;;;;;;;;6256628;28;20108;-66
2023/10/04 13:56:11;;;;;;;12.57;4.25;;;;;;;;;;6242489;28;20295;-66
2023/10/04 13:59:13;;;;;;;13.38;5.07;;;;;;;;;;6260532;28;20782;-65
2023/10/04 14:02:18;;;;;;;8.68;4.93;;;;;;;;;;6256509;28;20037;-65
2023/10/04 14:05:21;;;;;;;10.95;5.38;;;;;;;;;;6254255;28;20045;-65
2023/10/04 14:08:23;;;;;;;16.90;6.80;;;;;;;;;;6253363;28;20442;-65
2023/10/04 14:11:25;;;;;;;11.95;4.63;;;;;;;;;;6255523;28;20049;-65
2023/10/04 14:14:28;;;;;;;10.05;4.75;;;;;;;;;;6256834;28;20109;-66
2023/10/04 14:17:31;;;;;;;12.60;5.40;;;;;;;;;;6252863;28;20056;-66
2023/10/04 14:20:33;;;;;;;11.98;5.40;;;;;;;;;;6255667;28;20045;-65
2023/10/04 14:23:35;;;;;;;10.95;4.28;;;;;;;;;;6245310;28;20183;-65
2023/10/04 14:26:40;;;;;;;12.75;5.57;;;;;;;;;;6256454;28;20037;-65
2023/10/04 14:29:42;;;;;;;12.88;4.53;;;;;;;;;;6252917;28;20105;-66
2023/10/04 14:32:48;;;;;;;12.00;5.45;;;;;;;;;;6253947;28;20041;-65
2023/10/04 14:35:53;;;;;;;11.80;4.80;;;;;;;;;;6258260;28;20040;-66
2023/10/04 14:38:56;;;;;;;10.73;5.30;;;;;;;;;;6250107;28;20046;-65
2023/10/04 14:41:59;;;;;;;13.40;5.35;;;;;;;;;;6250334;28;20134;-66
2023/10/04 14:45:04;;;;;;;9.93;4.93;;;;;;;;;;6251297;28;20521;-66
2023/10/04 14:48:06;;;;;;;10.73;4.50;;;;;;;;;;6256217;28;20063;-66
2023/10/04 14:51:09;;;;;;;9.75;4.45;;;;;;;;;;6254621;28;20207;-67
2023/10/04 14:54:14;;;;;;;10.80;5.07;;;;;;;;;;6257048;28;20041;-66
2023/10/04 14:57:16;;;;;;;9.38;5.07;;;;;;;;;;6257020;28;20044;-67
2023/10/04 15:00:24;;;;;;;11.27;5.07;;;;;;;;;;6250296;28;20865;-67
2023/10/04 15:03:29;;;;;;;9.50;4.93;;;;;;;;;;6244499;28;20037;-67
2023/10/04 15:06:32;;;;;;;11.32;4.68;;;;;;;;;;6242464;28;20123;-67
2023/10/04 15:09:34;;;;;;;11.90;5.05;;;;;;;;;;6238966;28;20132;-66
2023/10/04 15:12:36;;;;;;;13.35;5.18;;;;;;;;;;6250131;28;20045;-67
2023/10/04 15:15:38;;;;;;;12.23;4.85;;;;;;;;;;6242663;28;20103;-67
2023/10/04 15:18:55;;;;;;;12.65;4.47;;;;;;;;;;6245345;28;20107;-67
2023/10/04 15:21:57;;;;;;;11.05;4.82;;;;;;;;;;6250662;28;20333;-66
2023/10/04 15:25:04;;;;;;;9.57;4.35;;;;;;;;;;6252467;28;20056;-67
2023/10/04 15:28:13;;;;;;;11.18;5.22;;;;;;;;;;6258108;28;20465;-66
2023/10/04 15:31:17;;;;;;;8.20;3.95;;;;;;;;;;6252437;28;20041;-66
2023/10/04 15:34:19;;;;;;;9.88;4.15;;;;;;;;;;6251043;28;20046;-66
2023/10/04 15:37:21;;;;;;;10.95;4.40;;;;;;;;;;6251747;28;20147;-66
2023/10/04 15:40:26;;;;;;;10.20;4.15;;;;;;;;;;6242960;28;20132;-67
2023/10/04 15:43:28;;;;;;;10.80;4.40;;;;;;;;;;6240618;28;20045;-66
2023/10/04 15:46:30;;;;;;;10.55;4.30;;;;;;;;;;6242455;28;20798;-67
2023/10/04 15:49:32;;;;;;;11.18;4.13;;;;;;;;;;6241594;28;20056;-66
2023/10/04 15:52:34;;;;;;;14.70;4.43;;;;;;;;;;6250077;28;20481;-66
2023/10/04 15:55:38;;;;;;;10.35;3.80;;;;;;;;;;6253705;28;20602;-66
2023/10/04 15:58:41;;;;;;;11.15;3.95;;;;;;;;;;6253981;28;20047;-65
2023/10/04 16:01:43;;;;;;;10.20;4.18;;;;;;;;;;6254494;28;20049;-66
2023/10/04 16:04:45;;;;;;;11.93;4.22;;;;;;;;;;6248924;28;20160;-66
2023/10/04 16:07:47;;;;;;;8.27;4.25;;;;;;;;;;6246681;28;20512;-66
2023/10/04 16:10:49;;;;;;;12.13;4.20;;;;;;;;;;6251575;28;20518;-66
2023/10/04 16:13:52;;;;;;;10.65;4.40;;;;;;;;;;6251711;28;20425;-66
2023/10/04 16:16:54;;;;;;;9.23;4.20;;;;;;;;;;6245597;28;20102;-66
2023/10/04 16:19:56;;;;;;;10.77;4.93;;;;;;;;;;6250792;28;20113;-67
2023/10/04 16:22:58;;;;;;;9.25;3.80;;;;;;;;;;6244126;28;20430;-66
2023/10/04 16:26:00;;;;;;;8.07;3.28;;;;;;;;;;6249410;28;20092;-66
2023/10/04 16:29:03;;;;;;;8.40;3.50;;;;;;;;;;6247654;28;20053;-66
2023/10/04 16:32:05;;;;;;;10.27;4.57;;;;;;;;;;6257171;28;20064;-66
2023/10/04 16:35:13;;;;;;;11.05;4.40;;;;;;;;;;6262002;28;20043;-67
2023/10/04 16:38:15;;;;;;;10.63;4.13;;;;;;;;;;6253547;28;20050;-67
2023/10/04 16:41:18;;;;;;;11.65;4.28;;;;;;;;;;6250582;28;20045;-66
2023/10/04 16:44:20;;;;;;;11.90;4.25;;;;;;;;;;6255682;28;20044;-67
2023/10/04 16:47:22;;;;;;;11.63;3.88;;;;;;;;;;6246319;28;20060;-66
2023/10/04 16:50:25;;;;;;;10.05;4.15;;;;;;;;;;6256944;28;20584;-66
2023/10/04 16:53:27;;;;;;;10.85;4.18;;;;;;;;;;6255252;28;20048;-67
2023/10/04 16:56:29;;;;;;;10.23;4.22;;;;;;;;;;6253008;28;20057;-65
2023/10/04 16:59:31;;;;;;;8.32;4.25;;;;;;;;;;6249065;28;20045;-64
2023/10/04 17:02:33;;;;;;;9.52;4.07;;;;;;;;;;6250029;28;20053;-65
2023/10/04 17:05:35;;;;;;;12.30;4.07;;;;;;;;;;6245535;28;20049;-65
2023/10/04 17:08:37;;;;;;;11.18;4.72;;;;;;;;;;6254505;28;20049;-65
2023/10/04 17:11:39;;;;;;;13.80;4.20;;;;;;;;;;6252809;28;20081;-65
2023/10/04 17:14:42;;;;;;;12.48;4.60;;;;;;;;;;6241622;28;20063;-65
2023/10/04 17:17:44;;;;;;;22.35;5.43;;;;;;;;;;6253108;28;20705;-65
2023/10/04 17:20:46;;;;;;;16.70;4.82;;;;;;;;;;6258940;28;20064;-64
2023/10/04 17:23:50;;;;;;;16.17;4.05;;;;;;;;;;6251614;28;20041;-65
2023/10/04 17:26:52;;;;;;;14.23;3.78;;;;;;;;;;6250001;28;20052;-65
2023/10/04 17:29:54;;;;;;;12.35;4.88;;;;;;;;;;6251055;28;20508;-65
2023/10/04 17:32:56;;;;;;;13.10;7.32;;;;;;;;;;6250350;28;20047;-64
2023/10/04 17:35:58;;;;;;;18.27;7.03;;;;;;;;;;6249044;28;20087;-65
2023/10/04 17:39:00;;;;;;;17.98;7.68;;;;;;;;;;6253772;28;20049;-65
2023/10/04 17:42:02;;;;;;;19.58;9.57;;;;;;;;;;6247077;28;20053;-65
2023/10/04 17:45:05;;;;;;;18.33;6.97;;;;;;;;;;6255973;28;20049;-65
2023/10/04 17:48:07;;;;;;;16.88;6.43;;;;;;;;;;6256739;28;20797;-65
2023/10/04 17:51:10;;;;;;;15.13;5.95;;;;;;;;;;6255054;28;20052;-65
2023/10/04 17:54:13;;;;;;;14.48;6.53;;;;;;;;;;6237839;28;20049;-65
2023/10/04 17:57:14;;;;;;;13.80;4.82;;;;;;;;;;6251094;28;20053;-65
2023/10/04 18:00:19;;;;;;;13.40;6.13;;;;;;;;;;6249077;28;20049;-64
2023/10/04 18:03:21;;;;;;;14.23;6.30;;;;;;;;;;6259236;28;20121;-64
2023/10/04 18:06:24;;;;;;;11.88;5.45;;;;;;;;;;6255443;28;20060;-65